Augusta, Missouri
Current Conditions -  °F | °C
As of 6:55 PM on Sunday 23 Nov 2014 (Local Time) from KFYG Reporting Station
Haze Haze  
Wind Chill: 12°   Ceiling: 500
Heat Index: 12°   Visibility: 3mi
Dew Point: 12°   Wind: 3mph
Humidity: 100%   Direction: 180°S
Pressure: 29.27"   Gusts: NA
Location:  38.57°N, 90.88°W
Report Text: KFYG 240055Z AUTO 18003KT 3SM BR BKN005 OVC009 12/12 A2927 RMK AO2
Loading
Personal Weather Stations






























Interactive Weather Map New forecast layout! Learn more

10-Day Weather Forecast

Advertisements
Track Severe Weather on mobile